Time;durP1;ratioP1;P1;durP2;ratioP2;P2;SDS_P1;SDS_P2;PMS_P1;PMS_P2;Temp;Humidity;BMP_temperature;BMP_pressure;BME280_temperature;BME280_humidity;BME280_pressure;Samples;Min_cycle;Max_cycle;Signal;HPM_P1;HPM_P2
2024/01/13 00:01:52;;;;;;;62.13;23.48;;;6.30;99.90;;;;;;5016723;28;20021;-85
2024/01/13 00:04:17;;;;;;;69.45;26.13;;;6.20;99.90;;;;;;5015860;28;20390;-85
2024/01/13 00:06:43;;;;;;;68.57;26.25;;;6.20;99.90;;;;;;5013281;28;20098;-84
2024/01/13 00:09:09;;;;;;;69.15;26.90;;;6.20;99.90;;;;;;5034654;28;20415;-85
2024/01/13 00:11:35;;;;;;;68.38;25.20;;;6.20;99.90;;;;;;5014621;28;20387;-84
2024/01/13 00:14:00;;;;;;;76.95;26.67;;;6.20;99.90;;;;;;5030576;28;20051;-85
2024/01/13 00:16:26;;;;;;;73.65;26.50;;;6.20;99.90;;;;;;5014107;28;20017;-85
2024/01/13 00:18:51;;;;;;;70.03;25.58;;;6.20;99.90;;;;;;5034253;28;20093;-85
2024/01/13 00:21:17;;;;;;;68.70;24.40;;;6.20;99.90;;;;;;5016213;28;20048;-85
2024/01/13 00:23:43;;;;;;;74.88;26.30;;;6.20;99.90;;;;;;5030771;28;20060;-84
2024/01/13 00:26:08;;;;;;;66.13;24.40;;;6.20;99.90;;;;;;5014378;28;20022;-86
2024/01/13 00:28:34;;;;;;;60.45;23.42;;;6.30;99.90;;;;;;5032902;28;20021;-84
2024/01/13 00:30:59;;;;;;;64.80;23.80;;;6.20;99.90;;;;;;5015959;28;20108;-85
2024/01/13 00:33:25;;;;;;;64.90;24.55;;;6.20;99.90;;;;;;5032616;28;20013;-85
2024/01/13 00:35:50;;;;;;;74.72;22.95;;;6.20;99.90;;;;;;5013851;28;20014;-85
2024/01/13 00:38:16;;;;;;;70.38;26.10;;;6.30;99.90;;;;;;5030722;28;20026;-85
2024/01/13 00:40:42;;;;;;;63.28;22.88;;;6.20;99.90;;;;;;5014290;28;20026;-85
2024/01/13 00:43:08;;;;;;;69.95;24.95;;;6.20;99.90;;;;;;5015571;28;20022;-84
2024/01/13 00:45:34;;;;;;;73.30;25.35;;;6.20;99.90;;;;;;5013231;28;20053;-84
2024/01/13 00:48:00;;;;;;;71.95;24.38;;;6.20;99.90;;;;;;5011977;28;20056;-85
2024/01/13 00:50:26;;;;;;;65.80;23.52;;;6.20;99.90;;;;;;5026818;28;20014;-84
2024/01/13 00:52:52;;;;;;;74.45;25.17;;;6.20;99.90;;;;;;5015108;28;20075;-85
2024/01/13 00:55:17;;;;;;;78.80;25.67;;;6.20;99.90;;;;;;5015270;28;20091;-85
2024/01/13 00:57:43;;;;;;;65.65;22.70;;;6.20;99.90;;;;;;5012808;28;20167;-84
2024/01/13 01:00:10;;;;;;;63.38;23.73;;;6.20;99.90;;;;;;5013505;28;20029;-85
2024/01/13 01:02:36;;;;;;;61.72;22.80;;;6.20;99.90;;;;;;5032822;28;20043;-84
2024/01/13 01:05:01;;;;;;;75.10;24.95;;;6.20;99.90;;;;;;5030237;28;20029;-84
2024/01/13 01:07:27;;;;;;;64.68;24.17;;;6.20;99.90;;;;;;5030918;28;20048;-85
2024/01/13 01:09:52;;;;;;;65.80;23.65;;;6.20;99.90;;;;;;5032179;28;20029;-84
2024/01/13 01:12:18;;;;;;;78.80;25.58;;;6.20;99.90;;;;;;5013456;28;20029;-84
2024/01/13 01:14:43;;;;;;;73.30;23.13;;;6.20;99.90;;;;;;5033004;28;20028;-85
2024/01/13 01:17:09;;;;;;;64.75;24.33;;;6.20;99.90;;;;;;5032930;28;20026;-85
2024/01/13 01:19:34;;;;;;;66.45;24.38;;;6.20;99.90;;;;;;5015229;28;20164;-84
2024/01/13 01:22:00;;;;;;;58.78;23.38;;;6.20;99.90;;;;;;5012654;28;20487;-85
2024/01/13 01:24:25;;;;;;;67.80;24.63;;;6.20;99.90;;;;;;5012940;28;20423;-84
2024/01/13 01:26:51;;;;;;;69.13;24.02;;;6.20;99.90;;;;;;5012413;28;20045;-85
2024/01/13 01:29:16;;;;;;;79.72;26.45;;;6.20;99.90;;;;;;5012172;28;20083;-84
2024/01/13 01:31:42;;;;;;;65.90;23.63;;;6.20;99.90;;;;;;5032340;28;20448;-84
2024/01/13 01:34:07;;;;;;;69.43;24.15;;;6.20;99.90;;;;;;5012375;28;20376;-85
2024/01/13 01:36:33;;;;;;;61.88;24.98;;;6.20;99.90;;;;;;5012295;28;20379;-85
2024/01/13 01:38:58;;;;;;;64.70;22.98;;;6.20;99.90;;;;;;5016949;28;20091;-84
2024/01/13 01:41:25;;;;;;;62.85;23.25;;;6.20;99.90;;;;;;5016345;28;20033;-84
2024/01/13 01:43:50;;;;;;;62.72;24.33;;;6.20;99.90;;;;;;5026796;28;20033;-85
2024/01/13 01:46:19;;;;;;;69.65;25.27;;;6.20;99.90;;;;;;5028353;28;20042;-85
2024/01/13 01:48:46;;;;;;;67.25;25.10;;;6.20;99.90;;;;;;5029815;28;20029;-84
2024/01/13 01:51:13;;;;;;;72.05;24.95;;;6.20;99.90;;;;;;5012313;28;20017;-84
2024/01/13 01:53:40;;;;;;;68.63;24.40;;;6.20;99.90;;;;;;5012376;28;20068;-85
2024/01/13 01:56:19;;;;;;;71.60;24.15;;;6.20;99.90;;;;;;5029041;28;20025;-84
2024/01/13 01:58:46;;;;;;;71.57;24.98;;;6.20;99.90;;;;;;5030923;28;20036;-84
2024/01/13 02:01:13;;;;;;;71.43;22.70;;;6.20;99.90;;;;;;5028067;28;20029;-85
2024/01/13 02:03:39;;;;;;;76.60;25.67;;;6.20;99.90;;;;;;5012113;28;20021;-85
2024/01/13 02:06:05;;;;;;;75.32;24.05;;;6.20;99.90;;;;;;5029980;28;20028;-85
2024/01/13 02:08:31;;;;;;;81.20;25.10;;;6.20;99.90;;;;;;5011117;28;20652;-85
2024/01/13 02:10:58;;;;;;;67.22;24.63;;;6.20;99.90;;;;;;5014173;28;20724;-85
2024/01/13 02:13:23;;;;;;;67.63;23.70;;;6.20;99.90;;;;;;5011673;28;20025;-84
2024/01/13 02:15:49;;;;;;;76.80;23.90;;;6.20;99.90;;;;;;5029835;28;20025;-85
2024/01/13 02:18:14;;;;;;;77.95;24.58;;;6.20;99.90;;;;;;5007998;28;20029;-84
2024/01/13 02:20:40;;;;;;;67.20;23.52;;;6.20;99.90;;;;;;5030240;28;20031;-85
2024/01/13 02:23:05;;;;;;;70.20;24.10;;;6.20;99.90;;;;;;5016852;28;20466;-85
2024/01/13 02:25:31;;;;;;;64.65;24.20;;;6.20;99.90;;;;;;5016782;28;20029;-85
2024/01/13 02:27:56;;;;;;;69.95;25.10;;;6.20;99.90;;;;;;5034057;28;20025;-85
2024/01/13 02:30:22;;;;;;;70.03;24.30;;;6.20;99.90;;;;;;5014901;28;20021;-85
2024/01/13 02:32:47;;;;;;;71.85;25.08;;;6.20;99.90;;;;;;5016843;28;20018;-85
2024/01/13 02:35:13;;;;;;;74.50;26.45;;;6.20;99.90;;;;;;5014712;28;20128;-84
2024/01/13 02:37:40;;;;;;;80.40;25.17;;;6.20;99.90;;;;;;5014731;28;20097;-85
2024/01/13 02:43:27;;;;;;;65.65;24.50;;;6.20;99.90;;;;;;5027519;28;20040;-85
2024/01/13 02:45:53;;;;;;;68.28;25.60;;;6.20;99.90;;;;;;5034102;28;20881;-85
2024/01/13 02:48:20;;;;;;;78.72;24.33;;;6.20;99.90;;;;;;5032252;28;20569;-85
2024/01/13 02:50:55;;;;;;;71.00;24.90;;;6.20;99.90;;;;;;5032247;28;20017;-85
2024/01/13 02:53:21;;;;;;;76.20;25.20;;;6.20;99.90;;;;;;5029947;28;20141;-85
2024/01/13 02:55:46;;;;;;;68.38;23.08;;;6.20;99.90;;;;;;5032816;28;20093;-84
2024/01/13 02:58:12;;;;;;;72.82;24.80;;;6.20;99.90;;;;;;5029694;28;20083;-85
2024/01/13 03:00:38;;;;;;;74.47;24.88;;;6.20;99.90;;;;;;5014580;28;20013;-84
2024/01/13 03:03:03;;;;;;;72.75;24.27;;;6.20;99.90;;;;;;5016939;28;20017;-85
2024/01/13 03:05:29;;;;;;;70.50;23.77;;;6.20;99.90;;;;;;5016424;28;20117;-85
2024/01/13 03:07:55;;;;;;;66.35;24.50;;;6.20;99.90;;;;;;5016130;28;20060;-83
2024/01/13 03:10:20;;;;;;;65.15;24.85;;;6.20;99.90;;;;;;5032779;28;20041;-85
2024/01/13 03:12:46;;;;;;;65.72;23.95;;;6.20;99.90;;;;;;5016170;28;20056;-85
2024/01/13 03:15:11;;;;;;;67.35;24.08;;;6.20;99.90;;;;;;5014893;28;20029;-85
2024/01/13 03:17:37;;;;;;;66.40;23.90;;;6.20;99.90;;;;;;5014125;28;20025;-85
2024/01/13 03:20:03;;;;;;;66.88;23.33;;;6.20;99.90;;;;;;5015123;28;20025;-85
2024/01/13 03:22:29;;;;;;;69.85;24.00;;;6.20;99.90;;;;;;5013698;28;20104;-86
2024/01/13 03:24:56;;;;;;;69.50;24.33;;;6.20;99.90;;;;;;5013265;28;20480;-87
2024/01/13 03:27:21;;;;;;;78.57;23.75;;;6.20;99.90;;;;;;5017146;28;20071;-87
2024/01/13 03:29:47;;;;;;;71.05;23.95;;;6.20;99.90;;;;;;5015888;28;20021;-87
2024/01/13 03:32:13;;;;;;;78.28;25.17;;;6.20;99.90;;;;;;5014629;28;20029;-84
2024/01/13 03:34:38;;;;;;;78.95;25.98;;;6.20;99.90;;;;;;5012255;28;20031;-85
2024/01/13 03:37:04;;;;;;;68.65;23.30;;;6.20;99.90;;;;;;5027492;28;20029;-85
2024/01/13 03:39:29;;;;;;;63.63;23.55;;;6.20;99.90;;;;;;5015724;28;20037;-85
2024/01/13 03:41:55;;;;;;;80.55;26.85;;;6.20;99.90;;;;;;5015978;28;20029;-86
2024/01/13 03:44:21;;;;;;;66.00;24.13;;;6.20;99.90;;;;;;5014867;28;20133;-84
2024/01/13 03:46:46;;;;;;;74.00;22.80;;;6.20;99.90;;;;;;5012823;28;20907;-86
2024/01/13 03:49:12;;;;;;;66.07;22.55;;;6.20;99.90;;;;;;5011473;28;20049;-85
2024/01/13 03:51:37;;;;;;;72.60;25.10;;;6.20;99.90;;;;;;5012849;28;20027;-85
2024/01/13 03:54:03;;;;;;;62.08;22.50;;;6.20;99.90;;;;;;5014068;28;20036;-85
2024/01/13 03:56:28;;;;;;;68.97;23.15;;;6.20;99.90;;;;;;5033229;28;20029;-84
2024/01/13 03:58:54;;;;;;;62.78;22.85;;;6.20;99.90;;;;;;5013451;28;20026;-85
2024/01/13 04:01:20;;;;;;;72.68;23.27;;;6.20;99.90;;;;;;5009021;28;20117;-86
2024/01/13 04:03:45;;;;;;;59.55;20.92;;;6.20;99.90;;;;;;5031571;28;20030;-85
2024/01/13 04:06:12;;;;;;;65.47;22.02;;;6.20;99.90;;;;;;5031607;28;20025;-85
2024/01/13 04:08:38;;;;;;;71.53;24.25;;;6.20;99.90;;;;;;5030817;28;20047;-85
2024/01/13 04:11:08;;;;;;;68.38;23.13;;;6.20;99.90;;;;;;5015683;28;20021;-85
2024/01/13 04:13:34;;;;;;;62.53;22.90;;;6.20;99.90;;;;;;5009498;28;20036;-85
2024/01/13 04:15:59;;;;;;;63.97;23.73;;;6.20;99.90;;;;;;5015972;28;20022;-85
2024/01/13 04:18:25;;;;;;;56.15;21.75;;;6.20;99.90;;;;;;5030391;28;20579;-88
2024/01/13 04:20:51;;;;;;;63.00;21.25;;;6.20;99.90;;;;;;5013944;28;20021;-85
2024/01/13 04:23:16;;;;;;;59.97;22.88;;;6.20;99.90;;;;;;5013796;28;20021;-85
2024/01/13 04:25:42;;;;;;;58.50;21.92;;;6.20;99.90;;;;;;5012969;28;20024;-84
2024/01/13 04:28:08;;;;;;;64.75;22.83;;;6.20;99.90;;;;;;5013426;28;20494;-85
2024/01/13 04:30:35;;;;;;;59.70;21.48;;;6.20;99.90;;;;;;5013979;28;20021;-84
2024/01/13 04:33:01;;;;;;;62.80;21.77;;;6.20;99.90;;;;;;5014742;28;20387;-85
2024/01/13 04:35:26;;;;;;;62.58;21.77;;;6.20;99.90;;;;;;5012479;28;20018;-84
2024/01/13 04:37:52;;;;;;;62.97;22.30;;;6.20;99.90;;;;;;5012107;28;20028;-86
2024/01/13 04:40:18;;;;;;;57.47;22.52;;;6.20;99.90;;;;;;5014313;28;20096;-85
2024/01/13 04:42:43;;;;;;;59.90;21.58;;;6.20;99.90;;;;;;5013200;28;20108;-84
2024/01/13 04:45:09;;;;;;;62.75;22.48;;;6.20;99.90;;;;;;5012709;28;20049;-85
2024/01/13 04:47:35;;;;;;;66.97;21.98;;;6.20;99.90;;;;;;5014018;28;20037;-85
2024/01/13 04:50:00;;;;;;;56.40;21.45;;;6.20;99.90;;;;;;5013015;28;20623;-85
2024/01/13 04:52:26;;;;;;;60.75;21.42;;;6.20;99.90;;;;;;5015804;28;20028;-85
2024/01/13 04:54:51;;;;;;;66.65;22.10;;;6.20;99.90;;;;;;5031488;28;20025;-84
2024/01/13 04:57:17;;;;;;;57.05;20.95;;;6.20;99.90;;;;;;5013091;28;20029;-84
2024/01/13 04:59:44;;;;;;;64.97;20.85;;;6.20;99.90;;;;;;5028435;28;20025;-85
2024/01/13 05:02:10;;;;;;;64.35;23.23;;;6.20;99.90;;;;;;5016159;28;20056;-85
2024/01/13 05:04:35;;;;;;;63.35;21.35;;;6.20;99.90;;;;;;5007521;28;20104;-85
2024/01/13 05:07:01;;;;;;;65.10;22.77;;;6.20;99.90;;;;;;5031450;28;20021;-85
2024/01/13 05:09:27;;;;;;;51.38;21.45;;;6.20;99.90;;;;;;5013688;28;20558;-85
2024/01/13 05:11:52;;;;;;;62.67;21.65;;;6.20;99.90;;;;;;5015493;28;20113;-85
2024/01/13 05:14:19;;;;;;;59.58;22.08;;;6.20;99.90;;;;;;5010223;28;20018;-84
2024/01/13 05:16:45;;;;;;;55.78;20.98;;;6.20;99.90;;;;;;5025754;28;20509;-86
2024/01/13 05:19:11;;;;;;;59.83;22.65;;;6.20;99.90;;;;;;5012723;28;20029;-85
2024/01/13 05:21:36;;;;;;;60.20;21.45;;;6.20;99.90;;;;;;5030222;28;20377;-85
2024/01/13 05:24:02;;;;;;;59.35;22.15;;;6.20;99.90;;;;;;5013616;28;20053;-86
2024/01/13 05:26:27;;;;;;;61.00;20.15;;;6.20;99.90;;;;;;5011040;28;20040;-85
2024/01/13 05:28:53;;;;;;;69.28;21.55;;;6.20;99.90;;;;;;5028171;28;20084;-85
2024/01/13 05:31:18;;;;;;;74.15;23.35;;;6.20;99.90;;;;;;5013232;28;20021;-85
2024/01/13 05:33:44;;;;;;;60.42;22.67;;;6.20;99.90;;;;;;5029420;28;20030;-84
2024/01/13 05:36:09;;;;;;;64.90;23.05;;;6.20;99.90;;;;;;5010945;28;20501;-84
2024/01/13 05:38:35;;;;;;;66.35;22.15;;;6.20;99.90;;;;;;5013111;28;20120;-85
2024/01/13 05:41:01;;;;;;;56.83;20.77;;;6.20;99.90;;;;;;5009509;28;20036;-85
2024/01/13 05:43:26;;;;;;;70.88;24.70;;;6.10;99.90;;;;;;5023165;28;20025;-83
2024/01/13 05:45:52;;;;;;;64.00;23.13;;;6.20;99.90;;;;;;5011837;28;20026;-84
2024/01/13 05:48:18;;;;;;;61.00;20.40;;;6.20;99.90;;;;;;5009530;28;20021;-85
2024/01/13 05:50:43;;;;;;;70.65;22.52;;;6.10;99.90;;;;;;5009592;28;20033;-85
2024/01/13 05:53:09;;;;;;;66.32;24.60;;;6.10;99.90;;;;;;5025606;28;20025;-85
2024/01/13 05:55:34;;;;;;;72.68;23.42;;;6.10;99.90;;;;;;5007452;28;20033;-84
2024/01/13 05:58:00;;;;;;;71.15;24.67;;;6.10;99.90;;;;;;5011716;28;20021;-84
2024/01/13 06:00:25;;;;;;;64.60;20.92;;;6.10;99.90;;;;;;5011909;28;20087;-85
2024/01/13 06:02:51;;;;;;;67.80;22.35;;;6.10;99.90;;;;;;5009676;28;20016;-85
2024/01/13 06:05:16;;;;;;;58.83;22.80;;;6.10;99.90;;;;;;5010803;28;20025;-84
2024/01/13 06:07:42;;;;;;;64.20;23.85;;;6.10;99.90;;;;;;5022281;28;20037;-84
2024/01/13 06:10:08;;;;;;;73.13;23.77;;;6.10;99.90;;;;;;5011977;28;20021;-85
2024/01/13 06:12:34;;;;;;;66.75;23.40;;;6.10;99.90;;;;;;5028395;28;20025;-85
2024/01/13 06:14:59;;;;;;;50.83;18.52;;;6.10;99.90;;;;;;5028731;28;20018;-85
2024/01/13 06:17:25;;;;;;;45.58;17.15;;;8.20;99.90;;;;;;5025285;28;20390;-85
2024/01/13 06:19:50;;;;;;;62.72;19.17;;;7.20;99.90;;;;;;5011624;28;20057;-86
2024/01/13 06:22:16;;;;;;;46.50;16.25;;;6.70;99.90;;;;;;5012608;28;20041;-85
2024/01/13 06:24:42;;;;;;;50.30;19.23;;;6.40;99.90;;;;;;5010699;28;20044;-86
2024/01/13 06:27:07;;;;;;;59.85;19.08;;;6.30;99.90;;;;;;5009565;28;20032;-85
2024/01/13 06:29:33;;;;;;;58.17;20.90;;;6.30;99.90;;;;;;5011962;28;20026;-85
2024/01/13 06:31:58;;;;;;;60.83;20.75;;;6.20;99.90;;;;;;5023358;28;20071;-85
2024/01/13 06:34:24;;;;;;;55.95;19.90;;;6.20;99.90;;;;;;5030511;28;20079;-85
2024/01/13 06:36:50;;;;;;;48.35;19.42;;;6.20;99.90;;;;;;5011143;28;20022;-85
2024/01/13 06:39:16;;;;;;;50.70;20.42;;;6.10;99.90;;;;;;5027655;28;20037;-85
2024/01/13 06:41:41;;;;;;;68.88;21.52;;;6.10;99.90;;;;;;5010833;28;20087;-85
2024/01/13 06:44:07;;;;;;;60.33;20.27;;;6.10;99.90;;;;;;5023783;28;20034;-85
2024/01/13 06:46:32;;;;;;;57.40;20.00;;;6.10;99.90;;;;;;5025239;28;20025;-85
2024/01/13 06:48:58;;;;;;;62.67;20.48;;;6.10;99.90;;;;;;5010881;28;20097;-85
2024/01/13 06:51:24;;;;;;;57.05;19.45;;;6.10;99.90;;;;;;5026127;28;20056;-85
2024/01/13 06:53:49;;;;;;;55.80;19.88;;;6.20;99.90;;;;;;5005750;28;20026;-85
2024/01/13 06:56:15;;;;;;;56.55;20.38;;;6.10;99.90;;;;;;5022760;28;20025;-85
2024/01/13 06:58:40;;;;;;;58.47;20.42;;;6.10;99.90;;;;;;5009194;28;20044;-86
2024/01/13 07:01:06;;;;;;;59.88;21.33;;;6.10;99.90;;;;;;5012089;28;20026;-85
2024/01/13 07:03:32;;;;;;;55.15;21.10;;;6.10;99.90;;;;;;5012292;28;20030;-86
2024/01/13 07:05:58;;;;;;;57.78;21.20;;;6.10;99.90;;;;;;5012344;28;20025;-84
2024/01/13 07:08:23;;;;;;;59.17;20.90;;;6.10;99.90;;;;;;5013036;28;20028;-85
2024/01/13 07:10:51;;;;;;;56.60;21.27;;;6.10;99.90;;;;;;5013596;28;20025;-85
2024/01/13 07:13:17;;;;;;;57.90;19.75;;;6.10;99.90;;;;;;5014047;28;20032;-85
2024/01/13 07:15:43;;;;;;;65.15;20.88;;;6.10;99.90;;;;;;5020139;28;20039;-84
2024/01/13 07:18:08;;;;;;;69.85;21.65;;;6.10;99.90;;;;;;5015072;28;20033;-85
2024/01/13 07:20:34;;;;;;;53.50;20.10;;;6.10;99.90;;;;;;5012016;28;20492;-85
2024/01/13 07:22:59;;;;;;;57.90;21.98;;;6.10;99.90;;;;;;5007334;28;20029;-86
2024/01/13 07:25:25;;;;;;;60.22;20.92;;;6.10;99.90;;;;;;5014789;28;20144;-84
2024/01/13 07:27:51;;;;;;;65.95;21.42;;;6.10;99.90;;;;;;5013145;28;20080;-86
2024/01/13 07:30:17;;;;;;;59.92;21.15;;;6.10;99.90;;;;;;5015021;28;20021;-85
2024/01/13 07:32:42;;;;;;;60.83;20.63;;;6.10;99.90;;;;;;5014531;28;20041;-85
2024/01/13 07:35:08;;;;;;;65.60;21.55;;;6.10;99.90;;;;;;5018865;28;20029;-84
2024/01/13 07:37:34;;;;;;;59.58;19.50;;;6.10;99.90;;;;;;5027685;28;20030;-85
2024/01/13 07:39:59;;;;;;;55.13;19.23;;;6.10;99.90;;;;;;5033677;28;20511;-85
2024/01/13 07:42:25;;;;;;;59.60;21.30;;;6.10;99.90;;;;;;5015345;28;20522;-84
2024/01/13 07:44:50;;;;;;;62.10;20.80;;;6.10;99.90;;;;;;5014509;28;20096;-86
2024/01/13 07:47:16;;;;;;;58.70;19.63;;;6.10;99.90;;;;;;5013598;28;20025;-86
2024/01/13 07:49:42;;;;;;;58.92;19.60;;;6.10;99.90;;;;;;5028164;28;20027;-84
2024/01/13 07:52:08;;;;;;;62.67;19.98;;;6.00;99.90;;;;;;5031898;28;20021;-85
2024/01/13 07:54:33;;;;;;;54.80;18.55;;;6.00;99.90;;;;;;5016445;28;20399;-85
2024/01/13 07:56:59;;;;;;;56.67;19.98;;;6.10;99.90;;;;;;5026891;28;20034;-86
2024/01/13 07:59:25;;;;;;;49.75;19.45;;;6.00;99.90;;;;;;5023453;28;20051;-84
2024/01/13 08:01:50;;;;;;;60.58;19.20;;;6.00;99.90;;;;;;5015332;28;20080;-85
2024/01/13 08:04:16;;;;;;;58.35;18.63;;;6.00;99.90;;;;;;5018941;28;20029;-84
2024/01/13 08:06:42;;;;;;;63.13;19.27;;;6.00;99.90;;;;;;5021858;28;20063;-84
2024/01/13 08:09:08;;;;;;;56.38;20.83;;;6.00;99.90;;;;;;5011501;28;20057;-85
2024/01/13 08:11:33;;;;;;;60.65;19.58;;;6.00;99.90;;;;;;5010942;28;20046;-84
2024/01/13 08:14:00;;;;;;;52.25;19.90;;;6.10;99.90;;;;;;5016865;28;20033;-84
2024/01/13 08:16:26;;;;;;;62.95;20.15;;;6.10;99.90;;;;;;5008421;28;20030;-85
2024/01/13 08:18:51;;;;;;;49.80;18.85;;;6.10;99.90;;;;;;5012520;28;20030;-85
2024/01/13 08:21:17;;;;;;;56.30;20.38;;;6.10;99.90;;;;;;5006343;28;20133;-85
2024/01/13 08:23:43;;;;;;;62.35;20.95;;;6.10;99.90;;;;;;5006377;28;20039;-85
2024/01/13 08:26:08;;;;;;;63.72;22.52;;;6.10;99.90;;;;;;5013402;28;20026;-85
2024/01/13 08:28:34;;;;;;;59.67;19.45;;;6.00;99.90;;;;;;5032573;28;20064;-85
2024/01/13 08:30:59;;;;;;;59.60;20.20;;;6.00;99.90;;;;;;5013427;28;20044;-85
2024/01/13 08:33:25;;;;;;;56.75;20.55;;;6.00;99.90;;;;;;5013693;28;20029;-84
2024/01/13 08:35:51;;;;;;;51.88;18.10;;;6.10;99.90;;;;;;5004823;28;20057;-85
2024/01/13 08:38:16;;;;;;;54.85;17.77;;;6.00;99.90;;;;;;5030954;28;20033;-84
2024/01/13 08:40:45;;;;;;;54.15;18.00;;;6.10;99.90;;;;;;5028995;28;20511;-86
2024/01/13 08:43:11;;;;;;;55.13;19.45;;;6.00;99.90;;;;;;5005321;28;20026;-85
2024/01/13 08:45:37;;;;;;;47.72;18.60;;;6.00;99.90;;;;;;5025878;28;20032;-85
2024/01/13 08:48:02;;;;;;;50.60;16.88;;;6.00;99.90;;;;;;5009419;28;20017;-85
2024/01/13 08:50:28;;;;;;;53.92;19.95;;;6.00;99.90;;;;;;5038317;28;20029;-84
2024/01/13 08:52:56;;;;;;;49.80;18.27;;;6.00;99.90;;;;;;5030925;28;20033;-85
2024/01/13 08:55:22;;;;;;;43.75;15.48;;;6.00;99.90;;;;;;5009768;28;20052;-85
2024/01/13 08:57:48;;;;;;;47.55;16.63;;;6.00;99.90;;;;;;5018023;28;20503;-84
2024/01/13 09:00:14;;;;;;;45.60;16.23;;;6.00;99.90;;;;;;5017404;28;20399;-85
2024/01/13 09:02:40;;;;;;;38.70;15.50;;;6.00;99.90;;;;;;5027468;28;20493;-84
2024/01/13 09:05:06;;;;;;;36.55;15.02;;;6.00;99.90;;;;;;5031879;28;20143;-85
2024/01/13 09:07:33;;;;;;;36.03;14.73;;;6.00;99.90;;;;;;5013946;28;20479;-85
2024/01/13 09:09:59;;;;;;;41.83;14.15;;;6.00;99.90;;;;;;5009987;28;20484;-84
2024/01/13 09:12:25;;;;;;;46.58;14.50;;;6.00;99.90;;;;;;5010390;28;20028;-84
2024/01/13 09:14:51;;;;;;;41.88;14.65;;;6.00;99.90;;;;;;5014285;28;20434;-85
2024/01/13 09:17:16;;;;;;;46.92;15.43;;;6.00;99.90;;;;;;5032101;28;20083;-84
2024/01/13 09:19:42;;;;;;;38.45;13.65;;;6.00;99.90;;;;;;5016678;28;20064;-84
2024/01/13 09:22:08;;;;;;;37.25;14.50;;;6.00;99.90;;;;;;5029053;28;20044;-84
2024/01/13 09:24:33;;;;;;;36.80;13.07;;;6.10;99.90;;;;;;5009931;28;20052;-85
2024/01/13 09:26:59;;;;;;;39.38;13.70;;;6.10;99.90;;;;;;5012972;28;20025;-84
2024/01/13 09:29:24;;;;;;;34.42;13.20;;;6.10;99.90;;;;;;5028474;28;20132;-83
2024/01/13 09:31:50;;;;;;;33.45;13.52;;;6.10;99.90;;;;;;5012610;28;20095;-85
2024/01/13 09:34:16;;;;;;;34.90;11.82;;;6.10;99.90;;;;;;5010464;28;20033;-84
2024/01/13 09:36:42;;;;;;;38.47;14.68;;;6.10;99.90;;;;;;5021741;28;20025;-84
2024/01/13 09:39:14;;;;;;;41.85;13.73;;;6.10;99.90;;;;;;5012159;28;20457;-85
2024/01/13 09:41:47;;;;;;;35.85;12.63;;;6.10;99.90;;;;;;5035112;28;20061;-85
2024/01/13 09:44:22;;;;;;;31.92;14.38;;;6.10;99.90;;;;;;5008375;28;20025;-84
2024/01/13 09:46:52;;;;;;;37.92;14.35;;;6.10;99.90;;;;;;5011846;28;20366;-84
2024/01/13 09:49:19;;;;;;;35.47;12.80;;;6.10;99.90;;;;;;5024318;28;20021;-84
2024/01/13 09:51:45;;;;;;;33.30;13.13;;;6.10;99.90;;;;;;5023697;28;20026;-84
2024/01/13 09:54:15;;;;;;;36.95;12.50;;;6.10;99.90;;;;;;5009323;28;20048;-84
2024/01/13 09:56:45;;;;;;;36.70;13.23;;;6.10;99.90;;;;;;5011125;28;20101;-84
2024/01/13 09:59:11;;;;;;;;;;;6.10;99.90;;;;;;5013244;28;20079;-83
2024/01/13 10:01:37;;;;;;;31.35;12.57;;;6.10;99.90;;;;;;5012015;28;19913;-84
2024/01/13 10:04:03;;;;;;;31.63;12.80;;;6.10;99.90;;;;;;5009487;28;20083;-84
2024/01/13 10:06:31;;;;;;;31.95;12.07;;;6.10;99.90;;;;;;5010443;28;20104;-84
2024/01/13 10:08:57;;;;;;;35.60;12.90;;;6.10;99.90;;;;;;5027930;28;20040;-84
2024/01/13 10:11:22;;;;;;;29.88;13.45;;;6.10;99.90;;;;;;5023903;28;20034;-85
2024/01/13 10:14:05;;;;;;;32.25;12.25;;;6.10;99.90;;;;;;5008270;28;20029;-85
2024/01/13 10:16:32;;;;;;;38.63;13.65;;;6.10;99.90;;;;;;5029747;28;20021;-85
2024/01/13 10:19:02;;;;;;;36.40;12.05;;;6.10;99.90;;;;;;5035025;28;20036;-85
2024/01/13 10:21:28;;;;;;;33.28;13.40;;;6.10;99.90;;;;;;5011898;28;20025;-84
2024/01/13 10:23:55;;;;;;;30.58;12.38;;;6.10;99.90;;;;;;5016311;28;20024;-84
2024/01/13 10:26:22;;;;;;;39.55;13.85;;;6.10;99.90;;;;;;5005555;28;20014;-84
2024/01/13 10:28:48;;;;;;;33.53;13.15;;;6.10;99.90;;;;;;5006658;28;20107;-84
2024/01/13 10:31:15;;;;;;;35.55;12.38;;;6.10;99.90;;;;;;5011401;28;21280;-84
2024/01/13 10:33:44;;;;;;;35.35;14.27;;;6.10;99.90;;;;;;5012141;28;20021;-85
2024/01/13 10:36:10;;;;;;;31.17;12.40;;;6.10;99.90;;;;;;5010731;28;20026;-86
2024/01/13 10:38:39;;;;;;;33.10;12.48;;;6.10;99.90;;;;;;5007590;28;20026;-86
2024/01/13 10:41:07;;;;;;;34.93;13.57;;;6.10;99.90;;;;;;5011694;28;20038;-84
2024/01/13 10:43:35;;;;;;;44.08;13.70;;;6.10;99.90;;;;;;5003400;28;20036;-85
2024/01/13 10:46:05;;;;;;;31.92;14.80;;;6.10;99.90;;;;;;5007909;28;20068;-84
2024/01/13 10:48:42;;;;;;;35.47;13.20;;;6.10;99.90;;;;;;5024693;28;20048;-85
2024/01/13 10:51:13;;;;;;;38.35;14.98;;;6.10;99.90;;;;;;5004127;28;20038;-84
2024/01/13 10:53:39;;;;;;;44.00;14.90;;;6.10;99.90;;;;;;5010290;28;20026;-84
2024/01/13 10:56:06;;;;;;;40.80;15.13;;;6.10;99.90;;;;;;5009602;28;20463;-84
2024/01/13 10:58:33;;;;;;;43.47;15.40;;;6.00;99.90;;;;;;5030187;28;20018;-83
2024/01/13 11:00:59;;;;;;;49.00;17.63;;;6.10;99.90;;;;;;5015451;28;20049;-83
2024/01/13 11:03:25;;;;;;;44.25;15.35;;;6.00;99.90;;;;;;5026482;28;20083;-87
2024/01/13 11:05:50;;;;;;;45.20;15.60;;;6.10;99.90;;;;;;5016925;28;20029;-83
2024/01/13 11:08:16;;;;;;;48.95;16.90;;;6.00;99.90;;;;;;5021509;28;20037;-86
2024/01/13 11:10:46;;;;;;;46.60;16.63;;;6.00;99.90;;;;;;5032082;28;20104;-86
2024/01/13 11:13:21;;;;;;;53.13;16.63;;;6.00;99.90;;;;;;5022476;28;20018;-86
2024/01/13 11:15:55;;;;;;;39.47;15.10;;;6.00;99.90;;;;;;5019031;28;20033;-88
2024/01/13 11:18:21;;;;;;;43.85;16.38;;;6.00;99.90;;;;;;5013557;28;20029;-85
2024/01/13 11:21:04;;;;;;;42.00;16.15;;;6.00;99.90;;;;;;5016165;28;20380;-85
2024/01/13 11:23:47;;;;;;;43.33;16.17;;;6.00;99.90;;;;;;5031695;28;20025;-88
2024/01/13 11:26:18;;;;;;;43.13;17.00;;;6.00;99.90;;;;;;5028079;28;20052;-85
2024/01/13 11:28:47;;;;;;;47.78;15.93;;;6.00;99.90;;;;;;5011876;28;20057;-85
2024/01/13 11:31:38;;;;;;;47.70;16.02;;;6.00;99.90;;;;;;5033832;28;20474;-84
2024/01/13 11:34:06;;;;;;;45.03;16.08;;;6.00;99.90;;;;;;5028317;28;20017;-83
2024/01/13 11:36:44;;;;;;;44.47;16.20;;;6.00;99.90;;;;;;5033514;28;20026;-84
2024/01/13 11:39:10;;;;;;;41.85;14.38;;;6.00;99.90;;;;;;5028169;28;20109;-83
2024/01/13 11:41:44;;;;;;;45.88;15.75;;;6.00;99.90;;;;;;5018188;28;20032;-84
2024/01/13 11:44:10;;;;;;;49.13;16.30;;;6.00;99.90;;;;;;5010882;28;20057;-82
2024/01/13 11:46:40;;;;;;;41.08;15.48;;;6.00;99.90;;;;;;5017956;28;20025;-83
2024/01/13 11:49:06;;;;;;;52.90;17.50;;;6.00;99.90;;;;;;5014122;28;20279;-85
2024/01/13 11:52:01;;;;;;;42.17;16.98;;;6.00;99.90;;;;;;5028957;28;20605;-84
2024/01/13 11:54:27;;;;;;;44.35;15.55;;;6.00;99.90;;;;;;5029166;28;20110;-83
2024/01/13 11:56:53;;;;;;;38.83;15.30;;;6.00;99.90;;;;;;5011180;28;20094;-84
2024/01/13 11:59:22;;;;;;;53.45;16.40;;;6.00;99.90;;;;;;5033513;28;20037;-84
2024/01/13 12:01:48;;;;;;;45.45;16.88;;;6.10;99.90;;;;;;5014361;28;20076;-83
2024/01/13 12:04:16;;;;;;;44.88;15.63;;;6.10;99.90;;;;;;5029338;28;20028;-83
2024/01/13 12:06:43;;;;;;;37.88;14.98;;;6.00;99.90;;;;;;5013738;28;20029;-83
2024/01/13 12:09:10;;;;;;;46.78;16.20;;;6.10;99.90;;;;;;5013934;28;20033;-82
2024/01/13 12:11:36;;;;;;;45.80;16.02;;;6.00;99.90;;;;;;5013290;28;20443;-82
2024/01/13 12:14:03;;;;;;;46.53;15.50;;;6.10;99.90;;;;;;5010606;28;20052;-83
2024/01/13 12:16:29;;;;;;;44.70;15.43;;;6.10;99.90;;;;;;5024010;28;20026;-84
2024/01/13 12:18:55;;;;;;;44.30;15.98;;;6.00;99.90;;;;;;5013484;28;20009;-84
2024/01/13 12:21:22;;;;;;;41.92;15.35;;;6.10;99.90;;;;;;5036661;28;20033;-83
2024/01/13 12:23:48;;;;;;;48.00;15.55;;;6.10;99.90;;;;;;5035789;28;20025;-82
2024/01/13 12:26:14;;;;;;;43.05;15.48;;;6.10;99.90;;;;;;5012540;28;20020;-83
2024/01/13 12:28:40;;;;;;;40.08;15.02;;;6.10;99.90;;;;;;5009617;28;20022;-83
2024/01/13 12:31:06;;;;;;;39.90;16.13;;;6.10;99.90;;;;;;5014766;28;20022;-84
2024/01/13 12:33:32;;;;;;;42.92;15.02;;;6.00;99.90;;;;;;5023929;28;20076;-83
2024/01/13 12:35:59;;;;;;;42.20;15.13;;;6.00;99.90;;;;;;5014952;28;20105;-81
2024/01/13 12:38:27;;;;;;;41.38;13.63;;;6.10;99.90;;;;;;5013088;28;20543;-83